Latest Weather Observations for Lake Macquarie - Cooranbong

IDN60901

Issued at 10:31 pm EDT Thursday 23 February 2017 (issued every 10 minutes, with the page automatically refreshed every 10 minutes)

About weather observations | Map of Sydney area stations | Latest observations for Sydney area | Other Formats
Station Details ID: 061412 Name: LAKE MACQUARIE AWS Lat: -33.09 Lon: 151.46 Height: 6.0 m
Data from the previous 72 hours. | See also: Recent months at Lake Macquarie - Cooranbong
Date/Time
EDT
Temp
°C
App
Temp
°C
Dew
Point
°C
Rel
Hum
%
Delta-T
°C
Wind Press
QNH
hPa
Press
MSL
hPa
Rain since
9am
mm
Dir  Spd
km/h
Gust
km/h
Spd
kts
Gust
kts
23/10:00pm 19.7 21.8 16.3 81 2.0 CALM 0 0 0 0 1018.4 1018.4 0.0
23/09:30pm 20.5 22.7 16.5 78 2.4 CALM 0 0 0 0 1018.2 1018.2 0.0
23/09:00pm 21.4 23.4 16.1 72 3.2 CALM 0 0 0 0 1018.1 1018.1 0.0
23/08:30pm 22.5 24.7 16.5 69 3.7 CALM 0 0 0 0 1017.8 1017.8 0.0
23/08:00pm 23.4 24.9 15.7 62 4.6 ESE 2 6 1 3 1017.7 1017.7 0.0
23/07:30pm 24.2 25.6 16.5 62 4.7 ESE 4 7 2 4 1017.4 1017.4 0.0
23/07:00pm 25.4 26.4 16.8 59 5.3 ESE 7 11 4 6 1017.0 1017.0 0.0
23/06:30pm 26.1 26.2 16.4 55 6.0 ESE 11 17 6 9 1016.9 1016.9 0.0
23/06:00pm 26.8 26.4 16.1 52 6.6 ESE 13 19 7 10 1016.8 1016.8 0.0
23/05:30pm 27.4 28.1 17.0 53 6.5 E 9 17 5 9 1016.8 1016.8 0.0
23/05:00pm 27.3 27.1 16.6 52 6.6 ESE 13 22 7 12 1016.8 1016.8 0.0
23/04:30pm 27.7 27.6 16.9 51 6.7 ESE 13 20 7 11 1016.9 1016.9 0.0
23/04:00pm 28.3 28.6 17.8 53 6.6 ESE 13 24 7 13 1017.0 1017.0 0.0
23/03:30pm 28.2 27.9 17.4 52 6.8 ESE 15 24 8 13 1017.1 1017.1 0.0
23/03:00pm 28.7 29.0 17.9 52 6.9 E 13 20 7 11 1017.3 1017.3 0.0
23/02:30pm 28.0 26.6 16.6 50 7.1 ESE 19 24 10 13 1017.7 1017.7 0.0
23/02:00pm 27.8 27.0 17.0 51 6.7 ESE 17 26 9 14 1017.9 1017.9 0.0
23/01:30pm 27.5 27.5 17.1 53 6.5 E 13 22 7 12 1018.2 1018.2 0.0
23/01:00pm 28.0 28.3 17.8 54 6.4 E 13 22 7 12 1018.5 1018.5 0.0
23/12:30pm 27.6 27.4 17.5 54 6.4 ESE 15 20 8 11 1018.6 1018.6 0.0
23/12:00pm 27.4 28.5 17.0 53 6.5 E 7 15 4 8 1018.9 1018.9 0.0
23/11:30am 27.8 29.2 17.9 54 6.3 E 7 13 4 7 1019.1 1019.1 0.0
23/11:00am 26.7 28.0 17.2 56 5.9 SSE 6 13 3 7 1019.4 1019.4 0.0
23/10:30am 26.3 27.8 17.6 58 5.5 NE 6 11 3 6 1019.6 1019.6 0.0
23/10:00am 24.5 25.6 16.5 61 4.9 NNE 6 11 3 6 1019.8 1019.8 0.0
23/09:30am 23.1 23.9 16.4 66 4.1 N 7 11 4 6 1020.1 1020.1 0.0
23/09:00am 21.0 22.6 16.0 73 3.0 ENE 2 6 1 3 1020.0 1020.0 0.0
23/08:30am 18.9 21.3 17.0 89 1.1 CALM 0 0 0 0 1019.9 1019.9 0.0
23/08:00am 16.9 19.0 16.3 96 0.4 CALM 0 0 0 0 1019.7 1019.7 0.0
23/07:30am 14.8 16.1 14.2 96 0.3 CALM 0 0 0 0 1019.5 1019.5 0.0
23/07:00am 14.1 15.1 13.3 95 0.4 CALM 0 0 0 0 1019.2 1019.2 0.0
23/06:30am 13.9 14.9 13.1 95 0.4 CALM 0 0 0 0 1018.9 1018.9 0.0
23/06:00am 14.5 15.7 13.7 95 0.4 CALM 0 0 0 0 1018.7 1018.7 0.0
23/05:30am 14.6 15.8 13.8 95 0.4 CALM 0 0 0 0 1018.7 1018.7 0.0
23/05:00am 14.9 16.1 13.9 94 0.6 CALM 0 0 0 0 1018.7 1018.7 0.0
23/04:30am 15.1 16.4 14.1 94 0.6 CALM 0 0 0 0 1018.6 1018.6 0.0
23/04:00am 15.6 17.1 14.6 94 0.6 CALM 0 0 0 0 1018.5 1018.5 0.0
23/03:30am 15.9 17.5 14.8 93 0.6 CALM 0 0 0 0 1018.5 1018.5 0.0
23/03:00am 15.8 17.2 14.5 92 0.7 CALM 0 0 0 0 1018.4 1018.4 0.0
23/02:30am 16.2 17.8 14.9 92 0.7 CALM 0 0 0 0 1018.7 1018.7 0.0
23/02:00am 16.6 18.3 15.1 91 0.9 CALM 0 0 0 0 1018.6 1018.6 0.0
23/01:30am 17.1 18.8 15.1 88 1.2 CALM 0 0 0 0 1018.8 1018.8 0.0
23/01:00am 17.8 19.6 15.4 86 1.4 CALM 0 0 0 0 1019.0 1019.0 0.0
23/12:30am 18.4 20.2 15.5 83 1.7 CALM 0 0 0 0 1019.0 1019.0 0.0
23/12:00am 19.1 20.7 15.0 77 2.4 CALM 0 0 0 0 1018.9 1018.9 0.0
 
Date/Time
EDT
Temp
°C
App
Temp
°C
Dew
Point
°C
Rel
Hum
%
Delta-T
°C
Wind Press
QNH
hPa
Press
MSL
hPa
Rain since
9am
mm
Dir  Spd
km/h
Gust
km/h
Spd
kts
Gust
kts
22/11:30pm 20.2 21.8 15.0 72 3.1 CALM 0 0 0 0 1019.0 1019.0 0.0
22/11:00pm 21.5 22.4 15.1 67 3.8 NE 4 7 2 4 1019.1 1019.1 0.0
22/10:30pm 22.1 22.8 15.7 67 3.8 NE 6 9 3 5 1019.2 1019.2 0.0
22/10:00pm 22.0 23.1 15.6 67 3.8 NE 4 7 2 4 1019.2 1019.2 0.0
22/09:30pm 21.8 23.2 15.4 67 3.8 NE 2 4 1 2 1019.0 1019.0 0.0
22/09:00pm 22.6 23.9 15.2 63 4.4 NE 2 6 1 3 1018.6 1018.6 0.0
22/08:30pm 23.4 24.1 15.7 62 4.6 NE 6 15 3 8 1018.2 1018.2 0.0
22/08:00pm 23.6 24.3 15.6 61 4.8 ENE 6 19 3 10 1018.0 1018.0 0.0
22/07:30pm 24.2 24.6 15.4 58 5.3 NE 7 17 4 9 1017.9 1017.9 0.0
22/07:00pm 24.9 25.1 14.7 53 6.1 ENE 7 17 4 9 1017.6 1017.6 0.0
22/06:30pm 25.6 24.4 14.1 49 6.8 ENE 13 28 7 15 1017.6 1017.6 0.0
22/06:00pm 26.2 25.7 15.0 50 6.7 E 11 20 6 11 1017.7 1017.7 0.0
22/05:30pm 26.6 25.3 14.7 48 7.1 E 15 24 8 13 1017.8 1017.8 0.0
22/05:00pm 27.3 26.2 15.3 48 7.3 E 15 28 8 15 1017.8 1017.8 0.0
22/04:30pm 27.1 25.9 15.1 47 7.3 E 15 28 8 15 1017.7 1017.7 0.0
22/04:00pm 27.2 26.1 15.2 47 7.3 E 15 30 8 16 1018.0 1018.0 0.0
22/03:30pm 27.3 25.8 15.3 48 7.3 E 17 30 9 16 1018.3 1018.3 0.0
22/03:00pm 27.3 25.8 15.3 48 7.3 E 17 30 9 16 1018.5 1018.5 0.0
22/02:30pm 27.1 25.2 15.1 47 7.3 E 19 32 10 17 1018.8 1018.8 0.0
22/02:00pm 27.3 25.0 15.7 49 7.1 E 22 39 12 21 1019.1 1019.1 0.0
22/01:30pm 27.1 25.2 15.8 50 6.9 E 20 37 11 20 1019.4 1019.4 0.0
22/01:00pm 26.9 25.2 16.2 52 6.6 E 20 35 11 19 1019.5 1019.5 0.0
22/12:30pm 27.0 25.5 16.3 52 6.6 E 19 30 10 16 1019.9 1019.9 0.0
22/12:00pm 27.0 27.0 17.2 55 6.1 E 13 26 7 14 1020.4 1020.4 0.0
22/11:30am 28.2 27.9 15.5 46 7.8 ENE 11 24 6 13 1020.7 1020.7 0.0
22/11:00am 27.2 27.5 15.9 50 6.9 NNE 9 17 5 9 1021.1 1021.1 0.0
22/10:30am 26.7 27.0 16.0 52 6.6 NE 9 20 5 11 1021.2 1021.2 0.0
22/10:00am 26.3 26.3 16.3 54 6.1 NE 11 20 6 11 1021.4 1021.4 0.0
22/09:30am 25.0 26.5 16.7 60 5.1 N 4 11 2 6 1021.5 1021.5 0.0
22/09:00am 22.9 24.6 16.2 66 4.1 NNW 2 4 1 2 1021.5 1021.5 0.0
22/08:30am 19.7 22.0 16.7 83 1.8 CALM 0 0 0 0 1021.4 1021.4 0.0
22/08:00am 16.4 18.1 15.3 93 0.6 CALM 0 0 0 0 1021.3 1021.3 0.0
22/07:30am 14.6 15.7 13.6 94 0.6 CALM 0 0 0 0 1021.0 1021.0 0.0
22/07:00am 13.9 14.5 13.0 94 0.5 N 2 7 1 4 1020.6 1020.6 0.0
22/06:30am 13.9 14.8 13.0 94 0.5 CALM 0 2 0 1 1020.3 1020.3 0.0
22/06:00am 13.9 14.8 12.8 93 0.6 CALM 0 0 0 0 1020.2 1020.2 0.0
22/05:30am 14.0 14.9 12.9 93 0.6 CALM 0 0 0 0 1020.0 1020.0 0.0
22/05:00am 14.1 15.0 13.0 93 0.6 CALM 0 0 0 0 1019.8 1019.8 0.0
22/04:30am 14.4 15.4 13.1 92 0.7 CALM 0 0 0 0 1019.7 1019.7 0.0
22/04:00am 14.4 15.3 13.0 91 0.8 CALM 0 0 0 0 1019.6 1019.6 0.0
22/03:30am 14.5 15.4 13.0 91 0.8 CALM 0 0 0 0 1019.5 1019.5 0.0
22/03:00am 14.9 15.9 13.3 90 0.9 CALM 0 0 0 0 1019.7 1019.7 0.0
22/02:30am 15.3 16.3 13.3 88 1.1 CALM 0 0 0 0 1020.0 1020.0 0.0
22/02:00am 15.6 16.7 13.6 88 1.1 CALM 0 0 0 0 1020.2 1020.2 0.0
22/01:30am 15.8 16.8 13.3 85 1.4 CALM 0 0 0 0 1020.4 1020.4 0.0
22/01:00am 16.2 17.3 13.5 84 1.5 CALM 0 0 0 0 1020.6 1020.6 0.0
22/12:30am 16.7 17.8 13.4 81 1.9 CALM 0 0 0 0 1020.8 1020.8 0.0
22/12:00am 17.4 18.5 13.5 78 2.2 CALM 0 0 0 0 1020.9 1020.9 0.0
 
Date/Time
EDT
Temp
°C
App
Temp
°C
Dew
Point
°C
Rel
Hum
%
Delta-T
°C
Wind Press
QNH
hPa
Press
MSL
hPa
Rain since
9am
mm
Dir  Spd
km/h
Gust
km/h
Spd
kts
Gust
kts
21/11:30pm 17.7 18.7 13.2 75 2.5 CALM 0 0 0 0 1020.8 1020.8 0.0
21/11:00pm 19.3 20.2 13.0 67 3.5 CALM 0 4 0 2 1021.0 1021.0 0.0
21/10:30pm 21.0 21.4 12.4 58 4.8 ENE 2 6 1 3 1021.1 1021.1 0.0
21/10:00pm 21.9 22.4 12.7 56 5.2 ENE 2 6 1 3 1021.1 1021.1 0.0
21/09:30pm 22.3 22.4 12.8 55 5.4 NE 4 7 2 4 1021.1 1021.1 0.0
21/09:00pm 22.5 22.6 12.7 54 5.6 NE 4 13 2 7 1020.9 1020.9 0.0
21/08:30pm 23.0 22.2 12.9 53 5.8 ENE 9 19 5 10 1020.6 1020.6 0.0
21/08:00pm 23.2 22.9 13.4 54 5.7 ENE 7 17 4 9 1020.2 1020.2 0.0
21/07:30pm 23.6 23.9 14.9 58 5.2 ENE 7 17 4 9 1019.9 1019.9 0.0
21/07:00pm 24.3 24.0 15.5 58 5.3 E 11 19 6 10 1019.4 1019.4 0.0
21/06:30pm 24.4 23.6 13.9 52 6.2 E 11 20 6 11 1018.9 1018.9 0.0
21/06:00pm 25.1 23.5 12.7 46 7.1 ENE 13 28 7 15 1018.6 1018.6 0.0
21/05:30pm 25.4 23.2 13.3 47 7.1 E 17 28 9 15 1018.3 1018.3 0.0
21/05:00pm 25.5 23.0 12.4 44 7.5 E 17 28 9 15 1018.2 1018.2 0.0
21/04:30pm 26.0 23.4 12.1 42 8.0 E 17 28 9 15 1018.0 1018.0 0.0
21/04:00pm 26.0 23.0 12.1 42 8.0 ESE 19 28 10 15 1018.0 1018.0 0.0
21/03:30pm 26.1 24.0 12.5 42 7.9 E 15 28 8 15 1018.0 1018.0 0.0
21/03:00pm 26.4 24.8 13.9 46 7.4 E 15 30 8 16 1018.2 1018.2 0.0
21/02:30pm 26.1 24.2 12.9 44 7.7 E 15 26 8 14 1018.5 1018.5 0.0
21/02:00pm 25.8 24.0 13.3 46 7.3 E 15 26 8 14 1018.8 1018.8 0.0
21/01:30pm 25.6 24.0 13.8 48 7.0 ENE 15 22 8 12 1019.1 1019.1 0.0
21/01:00pm 25.1 23.6 13.0 47 7.0 E 13 20 7 11 1019.3 1019.3 0.0
21/12:30pm 26.0 24.4 13.8 47 7.2 E 15 24 8 13 1019.4 1019.4 0.0
21/12:00pm 25.5 24.7 13.0 46 7.3 ENE 9 19 5 10 1019.7 1019.7 0.0
21/11:30am 24.9 23.9 13.5 49 6.7 ESE 11 19 6 10 1019.9 1019.9 0.0
21/11:00am 25.4 25.1 14.5 51 6.5 ESE 9 17 5 9 1020.0 1020.0 0.0
21/10:30am 24.1 23.8 12.7 49 6.6 SE 6 11 3 6 1020.2 1020.2 0.0
21/10:00am 23.3 23.4 12.6 51 6.1 SSE 4 6 2 3 1020.0 1020.0 0.0
21/09:30am 21.8 22.1 13.4 59 4.8 SW 4 7 2 4 1019.7 1019.7 0.0
21/09:00am 18.1 19.4 14.2 78 2.2 CALM 0 0 0 0 1019.5 1019.5 0.0
21/08:30am 15.3 16.6 14.2 93 0.6 CALM 0 0 0 0 1019.1 1019.1 0.0
21/08:00am 13.9 14.9 13.1 95 0.4 CALM 0 0 0 0 1018.8 1018.8 0.0
21/07:30am 12.3 12.7 11.4 94 0.5 CALM 0 0 0 0 1018.3 1018.3 0.0
21/07:00am 11.3 11.5 10.4 94 0.5 CALM 0 0 0 0 1018.0 1018.0 0.0
21/06:30am 11.6 11.8 10.7 94 0.5 CALM 0 0 0 0 1017.6 1017.6 0.0
21/06:00am 11.5 11.7 10.4 93 0.6 CALM 0 0 0 0 1017.3 1017.3 0.0
21/05:30am 11.6 11.8 10.5 93 0.6 CALM 0 0 0 0 1017.0 1017.0 0.0
21/05:00am 11.8 12.0 10.7 93 0.6 CALM 0 0 0 0 1016.8 1016.8 0.0
21/04:30am 12.1 12.4 10.8 92 0.7 CALM 0 0 0 0 1016.7 1016.7 0.0
21/04:00am 11.9 12.1 10.5 91 0.7 CALM 0 0 0 0 1016.6 1016.6 0.0
21/03:30am 12.1 12.3 10.7 91 0.7 CALM 0 0 0 0 1016.6 1016.6 0.0
21/03:00am 12.2 12.4 10.6 90 0.8 CALM 0 0 0 0 1016.5 1016.5 0.0
21/02:30am 12.6 12.9 10.8 89 0.9 CALM 0 0 0 0 1016.3 1016.3 0.0
21/02:00am 12.8 13.1 10.9 88 1.0 CALM 0 0 0 0 1016.5 1016.5 0.0
21/01:30am 12.7 12.9 10.6 87 1.1 CALM 0 0 0 0 1016.9 1016.9 0.0
21/01:00am 13.5 13.9 11.4 87 1.1 CALM 0 0 0 0 1016.7 1016.7 0.0
21/12:30am 13.7 14.1 11.2 85 1.3 CALM 0 0 0 0 1016.8 1016.8 0.0
21/12:00am 14.2 14.6 11.4 83 1.5 CALM 0 0 0 0 1016.6 1016.6 0.0
 
Date/Time
EDT
Temp
°C
App
Temp
°C
Dew
Point
°C
Rel
Hum
%
Delta-T
°C
Wind Press
QNH
hPa
Press
MSL
hPa
Rain since
9am
mm
Dir  Spd
km/h
Gust
km/h
Spd
kts
Gust
kts
20/11:30pm 14.5 14.9 11.3 81 1.7 CALM 0 0 0 0 1016.5 1016.5 0.0
20/11:00pm 14.4 14.7 10.8 79 1.9 CALM 0 0 0 0 1016.3 1016.3 0.0

Latest Capital City Observations: Canberra | Sydney | Melbourne | Brisbane | Adelaide | Perth | Hobart | Darwin

Other Formats:

Comma delimited format used in spreadsheet applications
http://www.bom.gov.au/fwo/IDN60901/IDN60901.95767.axf

JavaScript Object Notation format (JSON) in row-major order
http://www.bom.gov.au/fwo/IDN60901/IDN60901.95767.json